MSC Davos — A8IG3 — position and weather

sailwx.info

Track history (hours):
 
Tides and Currents Weather Stations Pressure Air Temp Water Temp Dewpoint Dewpoint Depression Visibility Wind Speed Wind Dir Waves Ship Positions

MSC Davos

Last reported at 2016-Jan-23 03:04 UTC. Time now 2016-Feb-13 15:19 UTC.
Position N 28°55' W 116°14'.
Warning: this ship's position is 21 days out of date.

Length 210.9 m; beam 32.3 m; draft 12 m.

Type: Cargo ship. MMSI: 636090972.

Date/timePositionNaut miles runAvg speedWind from/ knotsBaromVisibWave heightAir tempDewpointWater temp
2016-Jan-23 03:04N 28°55' W 116°14'713.9
2016-Jan-23 02:33N 29°01' W 116°16'1413.9
2016-Jan-23 01:33N 29°14' W 116°22'1413.7
2016-Jan-23 00:33N 29°27' W 116°27'1513.7
2016-Jan-22 23:28N 29°41' W 116°32'1313.7
2016-Jan-22 22:33N 29°53' W 116°37'1413.8
2016-Jan-22 21:33N 30°06' W 116°43'1813.5
2016-Jan-22 20:14N 30°23' W 116°50'913.7
2016-Jan-22 19:33N 30°31' W 116°53'1515.2
2016-Jan-22 18:33N 30°46' W 116°56'1616.3
2016-Jan-22 17:33N 31°03' W 116°56'1616.2
2016-Jan-22 16:33N 31°19' W 116°56'1616.2
2016-Jan-22 15:33N 31°35' W 116°56'22 1.3
2016-Jan-21 22:10N 31°57' W 116°56'1219.6
2016-Jan-21 21:33N 32°04' W 117°08'2019.5
2016-Jan-21 20:33N 32°18' W 117°24'1919.4
2016-Jan-21 19:33N 32°32' W 117°39'1313.0
2016-Jan-21 18:33N 32°43' W 117°48'1211.7
2016-Jan-21 17:33N 32°54' W 117°53'1211.5
2016-Jan-21 16:33N 33°05' W 117°58'1211.6
2016-Jan-21 15:33N 33°15' W 118°04'1211.5
2016-Jan-21 14:33N 33°26' W 118°09'1211.8
2016-Jan-21 13:33N 33°37' W 118°14'7 6.8
2016-Jan-21 12:33N 33°44' W 118°16'0 0.0
2016-Jan-21 02:05N 33°44' W 118°15'0 0.0
2016-Jan-21 01:32N 33°44' W 118°15'0 0.0
2016-Jan-21 00:32N 33°44' W 118°15'0 0.0
2016-Jan-20 23:32N 33°44' W 118°15'0 0.0
2016-Jan-20 12:10N 33°44' W 118°15'2 3.7
2016-Jan-20 11:33N 33°42' W 118°14'11 5.4
2016-Jan-20 09:33N 33°32' W 118°08'9 9.0
2016-Jan-20 08:33N 33°24' W 118°05'9 8.7
2016-Jan-20 07:33N 33°16' W 118°01'9 8.6
2016-Jan-20 06:33N 33°07' W 117°58'1010.2
2016-Jan-20 05:33N 32°58' W 117°54'1111.0
2016-Jan-20 04:33N 32°47' W 117°49'1111.3
2016-Jan-20 03:33N 32°37' W 117°45'1111.4
2016-Jan-20 02:34N 32°26' W 117°40'1111.0
2016-Jan-20 01:33N 32°16' W 117°36'1110.9
2016-Jan-20 00:34N 32°05' W 117°32'9 9.0
2016-Jan-19 23:34N 31°57' W 117°28'1212.3
2016-Jan-19 22:34N 31°45' W 117°23'1311.9
2016-Jan-19 21:29N 31°33' W 117°18'  
2016-Jan-15 09:27N 16°34' W 099°59'3016.0
2016-Jan-15 07:33N 16°20' W 099°31'1716.0
2016-Jan-15 06:28N 16°12' W 099°15'  
Track history (hours):
 
Tides and Currents Weather Stations Pressure Air Temp Water Temp Dewpoint Dewpoint Depression Visibility Wind Speed Wind Dir Waves Ship Positions

MSC Davos

Last reported at 2016-Jan-23 03:04 UTC. Time now 2016-Feb-13 15:19 UTC.
Position N 28°55' W 116°14'.
Warning: this ship's position is 21 days out of date.

Length 210.9 m; beam 32.3 m; draft 12 m.

Type: Cargo ship. MMSI: 636090972.

Date/timePositionNaut miles runAvg speedWind from/ knotsBaromVisibWave heightAir tempDewpointWater temp
2016-Jan-23 03:04N 28°55' W 116°14'713.9
2016-Jan-23 02:33N 29°01' W 116°16'1413.9
2016-Jan-23 01:33N 29°14' W 116°22'1413.7
2016-Jan-23 00:33N 29°27' W 116°27'1513.7
2016-Jan-22 23:28N 29°41' W 116°32'1313.7
2016-Jan-22 22:33N 29°53' W 116°37'1413.8
2016-Jan-22 21:33N 30°06' W 116°43'1813.5
2016-Jan-22 20:14N 30°23' W 116°50'913.7
2016-Jan-22 19:33N 30°31' W 116°53'1515.2
2016-Jan-22 18:33N 30°46' W 116°56'1616.3
2016-Jan-22 17:33N 31°03' W 116°56'1616.2
2016-Jan-22 16:33N 31°19' W 116°56'1616.2
2016-Jan-22 15:33N 31°35' W 116°56'22 1.3
2016-Jan-21 22:10N 31°57' W 116°56'1219.6
2016-Jan-21 21:33N 32°04' W 117°08'2019.5
2016-Jan-21 20:33N 32°18' W 117°24'1919.4
2016-Jan-21 19:33N 32°32' W 117°39'1313.0
2016-Jan-21 18:33N 32°43' W 117°48'1211.7
2016-Jan-21 17:33N 32°54' W 117°53'1211.5
2016-Jan-21 16:33N 33°05' W 117°58'1211.6
2016-Jan-21 15:33N 33°15' W 118°04'1211.5
2016-Jan-21 14:33N 33°26' W 118°09'1211.8
2016-Jan-21 13:33N 33°37' W 118°14'7 6.8
2016-Jan-21 12:33N 33°44' W 118°16'0 0.0
2016-Jan-21 02:05N 33°44' W 118°15'0 0.0
2016-Jan-21 01:32N 33°44' W 118°15'0 0.0
2016-Jan-21 00:32N 33°44' W 118°15'0 0.0
2016-Jan-20 23:32N 33°44' W 118°15'0 0.0
2016-Jan-20 12:10N 33°44' W 118°15'2 3.7
2016-Jan-20 11:33N 33°42' W 118°14'11 5.4
2016-Jan-20 09:33N 33°32' W 118°08'9 9.0
2016-Jan-20 08:33N 33°24' W 118°05'9 8.7
2016-Jan-20 07:33N 33°16' W 118°01'9 8.6
2016-Jan-20 06:33N 33°07' W 117°58'1010.2
2016-Jan-20 05:33N 32°58' W 117°54'1111.0
2016-Jan-20 04:33N 32°47' W 117°49'1111.3
2016-Jan-20 03:33N 32°37' W 117°45'1111.4
2016-Jan-20 02:34N 32°26' W 117°40'1111.0
2016-Jan-20 01:33N 32°16' W 117°36'1110.9
2016-Jan-20 00:34N 32°05' W 117°32'9 9.0
2016-Jan-19 23:34N 31°57' W 117°28'1212.3
2016-Jan-19 22:34N 31°45' W 117°23'1311.9
2016-Jan-19 21:29N 31°33' W 117°18'  
2016-Jan-15 09:27N 16°34' W 099°59'3016.0
2016-Jan-15 07:33N 16°20' W 099°31'1716.0
2016-Jan-15 06:28N 16°12' W 099°15'  

Dump ship's entire track history